createdAt,value
2023-05-15T00:01:16.834Z,10.27
2023-05-15T00:04:06.592Z,8.88
2023-05-15T00:06:57.263Z,9.40
2023-05-15T00:09:46.453Z,8.52
2023-05-15T00:12:36.783Z,10.80
2023-05-15T00:15:26.374Z,8.90
2023-05-15T00:18:16.133Z,8.13
2023-05-15T00:21:05.776Z,7.53
2023-05-15T00:23:58.460Z,6.82
2023-05-15T00:26:47.688Z,7.03
2023-05-15T00:29:36.992Z,10.68
2023-05-15T00:32:26.398Z,6.40
2023-05-15T00:35:16.025Z,7.65
2023-05-15T00:38:05.286Z,8.07
2023-05-15T00:40:57.252Z,10.43
2023-05-15T00:43:46.855Z,6.15
2023-05-15T00:46:39.400Z,8.55
2023-05-15T00:49:30.788Z,7.75
2023-05-15T00:52:21.520Z,9.63
2023-05-15T00:55:11.454Z,9.45
2023-05-15T00:58:03.639Z,8.40
2023-05-15T01:00:55.214Z,6.55
2023-05-15T01:03:45.181Z,7.30
2023-05-15T01:06:34.485Z,6.22
2023-05-15T01:09:26.845Z,8.30
2023-05-15T01:12:18.186Z,7.22
2023-05-15T01:15:10.158Z,11.18
2023-05-15T01:17:59.491Z,8.68
2023-05-15T01:21:19.697Z,7.72
2023-05-15T01:24:33.014Z,8.00
2023-05-15T01:27:31.590Z,8.50
2023-05-15T01:30:28.414Z,9.27
2023-05-15T01:33:23.611Z,9.90
2023-05-15T01:36:20.590Z,7.30
2023-05-15T01:39:12.270Z,7.68
2023-05-15T01:42:08.969Z,9.07
2023-05-15T01:45:03.212Z,8.20
2023-05-15T01:47:55.858Z,7.88
2023-05-15T01:50:46.940Z,6.82
2023-05-15T01:53:37.862Z,7.75
2023-05-15T01:56:28.470Z,7.80
2023-05-15T01:59:20.620Z,8.35
2023-05-15T02:02:12.278Z,6.97
2023-05-15T02:05:02.720Z,11.38
2023-05-15T02:07:52.486Z,8.82
2023-05-15T02:10:42.784Z,6.22
2023-05-15T02:13:33.298Z,7.95
2023-05-15T02:16:22.883Z,8.80
2023-05-15T02:19:13.734Z,8.32
2023-05-15T02:22:03.743Z,9.25
2023-05-15T02:24:53.387Z,10.82
2023-05-15T02:27:52.614Z,5.80
2023-05-15T02:30:50.740Z,12.75
2023-05-15T02:33:52.945Z,5.80
2023-05-15T02:36:48.966Z,9.98
2023-05-15T02:39:40.102Z,4.32
2023-05-15T02:42:30.934Z,7.47
2023-05-15T02:45:21.858Z,6.45
2023-05-15T02:48:11.271Z,7.00
2023-05-15T02:51:01.684Z,7.38
2023-05-15T02:53:53.276Z,8.90
2023-05-15T02:56:42.953Z,9.82
2023-05-15T02:59:32.267Z,6.47
2023-05-15T03:02:21.630Z,6.22
2023-05-15T03:05:11.361Z,10.07
2023-05-15T03:08:01.705Z,7.18
2023-05-15T03:10:52.569Z,11.88
2023-05-15T03:13:42.343Z,7.53
2023-05-15T03:16:31.634Z,7.70
2023-05-15T03:19:21.034Z,7.43
2023-05-15T03:22:10.234Z,7.25
2023-05-15T03:25:01.874Z,5.68
2023-05-15T03:27:52.821Z,7.38
2023-05-15T03:30:44.919Z,7.30
2023-05-15T03:33:34.128Z,6.70
2023-05-15T03:36:23.730Z,8.98
2023-05-15T03:39:12.982Z,8.07
2023-05-15T03:42:02.292Z,10.73
2023-05-15T03:44:53.110Z,7.15
2023-05-15T03:47:43.038Z,5.50
2023-05-15T03:50:32.709Z,6.63
2023-05-15T03:53:22.095Z,7.50
2023-05-15T03:56:11.377Z,8.02
2023-05-15T03:59:00.668Z,8.48
2023-05-15T04:02:03.618Z,10.95
2023-05-15T04:04:53.875Z,3.55
2023-05-15T04:07:43.185Z,10.25
2023-05-15T04:10:33.816Z,7.57
2023-05-15T04:13:22.987Z,5.95
2023-05-15T04:16:12.186Z,7.25
2023-05-15T04:19:02.967Z,6.10
2023-05-15T04:21:52.338Z,7.68
2023-05-15T04:24:41.812Z,8.70
2023-05-15T04:27:31.038Z,8.02
2023-05-15T04:30:20.768Z,6.70
2023-05-15T04:33:09.996Z,6.68
2023-05-15T04:36:02.012Z,10.80
2023-05-15T04:38:51.749Z,6.68
2023-05-15T04:41:40.951Z,8.63
2023-05-15T04:44:30.244Z,10.68
2023-05-15T04:47:19.482Z,6.50
2023-05-15T04:50:09.833Z,8.75
2023-05-15T04:53:00.405Z,7.75
2023-05-15T04:55:51.456Z,5.80
2023-05-15T04:58:40.638Z,13.40
2023-05-15T05:01:30.568Z,8.40
2023-05-15T05:04:20.266Z,11.13
2023-05-15T05:07:09.618Z,8.27
2023-05-15T05:10:00.332Z,11.10
2023-05-15T05:12:49.633Z,7.20
2023-05-15T05:15:38.947Z,12.88
2023-05-15T05:18:28.315Z,7.65
2023-05-15T05:21:17.650Z,6.53
2023-05-15T05:24:07.180Z,11.20
2023-05-15T05:26:58.447Z,8.57
2023-05-15T05:29:47.741Z,8.13
2023-05-15T05:32:37.003Z,15.10
2023-05-15T05:35:28.296Z,8.50
2023-05-15T05:38:17.551Z,12.23
2023-05-15T05:41:06.805Z,10.35
2023-05-15T05:43:57.389Z,16.77
2023-05-15T05:46:46.608Z,12.82
2023-05-15T05:49:35.850Z,13.30
2023-05-15T05:52:25.224Z,14.00
2023-05-15T05:55:14.573Z,11.40
2023-05-15T05:58:08.564Z,12.90
2023-05-15T06:01:05.848Z,9.25
2023-05-15T06:03:56.118Z,9.85
2023-05-15T06:06:45.427Z,14.00
2023-05-15T06:09:34.826Z,12.25
2023-05-15T06:12:24.067Z,14.55
2023-05-15T06:15:13.787Z,21.23
2023-05-15T06:18:04.702Z,17.10
2023-05-15T06:20:54.122Z,9.55
2023-05-15T06:23:46.165Z,8.65
2023-05-15T06:26:35.794Z,12.25
2023-05-15T06:29:28.840Z,14.38
2023-05-15T06:32:18.248Z,21.50
2023-05-15T06:35:11.419Z,15.65
2023-05-15T06:38:02.864Z,13.50
2023-05-15T06:40:52.093Z,14.30
2023-05-15T06:43:41.380Z,10.52
2023-05-15T06:46:30.751Z,14.93
2023-05-15T06:49:20.162Z,12.43
2023-05-15T06:52:11.224Z,12.43
2023-05-15T06:55:00.944Z,18.17
2023-05-15T06:57:50.506Z,11.43
2023-05-15T07:00:40.414Z,18.13
2023-05-15T07:03:29.709Z,11.38
2023-05-15T07:06:19.153Z,13.38
2023-05-15T07:09:10.096Z,13.70
2023-05-15T07:11:59.499Z,17.13
2023-05-15T07:14:48.844Z,15.25
2023-05-15T07:17:38.271Z,16.58
2023-05-15T07:20:30.326Z,11.50
2023-05-15T07:23:21.604Z,14.13
2023-05-15T07:26:16.837Z,13.15
2023-05-15T07:29:10.341Z,14.52
2023-05-15T07:32:00.326Z,15.65
2023-05-15T07:34:50.220Z,14.02
2023-05-15T07:37:39.739Z,16.88
2023-05-15T07:40:29.055Z,13.30
2023-05-15T07:43:19.809Z,13.43
2023-05-15T07:46:09.135Z,16.08
2023-05-15T07:48:58.473Z,13.60
2023-05-15T07:51:47.795Z,14.10
2023-05-15T07:54:37.207Z,11.88
2023-05-15T07:57:26.872Z,8.93
2023-05-15T08:00:20.226Z,7.85
2023-05-15T08:03:09.760Z,12.00
2023-05-15T08:05:59.812Z,4.68
2023-05-15T08:08:49.228Z,6.63
2023-05-15T08:11:38.842Z,9.00
2023-05-15T08:14:28.119Z,10.38
2023-05-15T08:17:19.683Z,4.65
2023-05-15T08:20:10.725Z,6.70
2023-05-15T08:22:59.921Z,8.57
2023-05-15T08:25:49.271Z,7.22
2023-05-15T08:28:38.520Z,4.50
2023-05-15T08:31:28.051Z,5.57
2023-05-15T08:34:19.041Z,7.30
2023-05-15T08:37:08.557Z,8.05
2023-05-15T08:39:58.093Z,6.95
2023-05-15T08:42:54.200Z,10.10
2023-05-15T08:45:44.773Z,7.40
2023-05-15T08:48:38.449Z,7.75
2023-05-15T08:51:29.460Z,5.75
2023-05-15T08:54:19.148Z,6.10
2023-05-15T08:57:10.575Z,5.63
2023-05-15T09:00:00.490Z,8.00
2023-05-15T09:02:49.962Z,5.38
2023-05-15T09:05:40.255Z,7.38
2023-05-15T09:08:33.829Z,8.15
2023-05-15T09:11:25.351Z,5.88
2023-05-15T09:14:14.982Z,6.28
2023-05-15T09:17:04.316Z,5.82
2023-05-15T09:19:53.648Z,4.60
2023-05-15T09:22:42.910Z,8.85
2023-05-15T09:25:39.556Z,4.63
2023-05-15T09:28:32.501Z,7.05
2023-05-15T09:31:23.116Z,23.80
2023-05-15T09:34:12.395Z,7.20
2023-05-15T09:37:04.498Z,5.15
2023-05-15T09:39:54.151Z,5.60
2023-05-15T09:42:52.497Z,4.72
2023-05-15T09:45:41.866Z,7.75
2023-05-15T09:48:32.052Z,5.22
2023-05-15T09:51:22.192Z,4.80
2023-05-15T09:54:17.264Z,5.50
2023-05-15T09:57:10.756Z,3.72
2023-05-15T10:00:05.296Z,8.48
2023-05-15T10:03:03.783Z,6.53
2023-05-15T10:06:01.507Z,6.40
2023-05-15T10:08:54.672Z,7.80
2023-05-15T10:11:45.535Z,8.38
2023-05-15T10:14:35.124Z,2.80
2023-05-15T10:17:26.446Z,4.55
2023-05-15T10:20:17.259Z,4.57
2023-05-15T10:23:11.733Z,4.03
2023-05-15T10:26:05.516Z,5.45
2023-05-15T10:28:56.276Z,12.00
2023-05-15T10:31:46.114Z,3.50
2023-05-15T10:34:37.154Z,3.63
2023-05-15T10:37:27.299Z,5.00
2023-05-15T10:40:18.656Z,5.05
2023-05-15T10:43:11.604Z,3.75
2023-05-15T10:48:50.155Z,6.95
2023-05-15T10:51:43.564Z,8.75
2023-05-15T10:54:32.848Z,4.85
2023-05-15T10:57:23.275Z,5.30
2023-05-15T11:00:29.603Z,2.90
2023-05-15T11:03:48.563Z,4.78
2023-05-15T11:06:42.726Z,5.50
2023-05-15T11:12:48.324Z,4.97
2023-05-15T11:15:45.436Z,3.55
2023-05-15T11:18:39.241Z,4.07
2023-05-15T11:21:33.552Z,4.90
2023-05-15T11:24:29.120Z,3.50
2023-05-15T11:27:21.591Z,3.88
2023-05-15T11:30:18.117Z,4.15
2023-05-15T11:33:12.153Z,4.53
2023-05-15T11:36:02.390Z,3.85
2023-05-15T11:38:53.874Z,4.25
2023-05-15T11:41:45.152Z,3.58
2023-05-15T11:44:34.434Z,3.72
2023-05-15T11:47:24.415Z,2.75
2023-05-15T11:50:13.993Z,6.35
2023-05-15T11:53:09.059Z,3.80
2023-05-15T11:55:58.489Z,5.35
2023-05-15T11:58:52.037Z,3.60
2023-05-15T12:01:44.140Z,5.53
2023-05-15T12:04:36.085Z,3.42
2023-05-15T12:07:25.582Z,4.73
2023-05-15T12:10:15.644Z,5.07
2023-05-15T12:13:05.270Z,6.03
2023-05-15T12:15:57.354Z,4.13
2023-05-15T12:18:49.137Z,3.92
2023-05-15T12:21:43.286Z,4.95
2023-05-15T12:24:32.565Z,2.25
2023-05-15T12:27:23.823Z,4.70
2023-05-15T12:30:15.254Z,3.00
2023-05-15T12:33:08.203Z,4.13
2023-05-15T12:38:51.422Z,5.30
2023-05-15T12:41:40.707Z,2.40
2023-05-15T12:44:30.086Z,3.60
2023-05-15T12:47:24.953Z,3.20
2023-05-15T12:50:21.164Z,2.45
2023-05-15T12:53:10.985Z,2.75
2023-05-15T12:56:00.344Z,1.63
2023-05-15T12:58:49.910Z,5.50
2023-05-15T13:01:39.341Z,4.22
2023-05-15T13:04:29.137Z,3.15
2023-05-15T13:07:19.767Z,2.13
2023-05-15T13:10:10.706Z,3.53
2023-05-15T13:13:00.255Z,6.15
2023-05-15T13:15:51.226Z,4.60
2023-05-15T13:18:40.648Z,1.98
2023-05-15T13:21:29.949Z,2.92
2023-05-15T13:24:20.677Z,5.97
2023-05-15T13:27:09.922Z,4.25
2023-05-15T13:29:59.156Z,4.25
2023-05-15T13:32:48.852Z,4.38
2023-05-15T13:35:38.835Z,3.13
2023-05-15T13:38:28.079Z,2.78
2023-05-15T13:41:18.877Z,3.78
2023-05-15T13:44:08.217Z,2.95
2023-05-15T13:46:57.499Z,4.22
2023-05-15T13:49:47.606Z,3.70
2023-05-15T13:52:37.225Z,1.95
2023-05-15T13:55:26.774Z,3.67
2023-05-15T13:58:17.474Z,2.88
2023-05-15T14:01:08.200Z,4.78
2023-05-15T14:03:57.556Z,6.13
2023-05-15T14:06:46.874Z,4.35
2023-05-15T14:09:36.321Z,3.53
2023-05-15T14:12:25.845Z,3.40
2023-05-15T14:15:16.504Z,4.93
2023-05-15T14:18:05.927Z,5.28
2023-05-15T14:20:55.281Z,5.43
2023-05-15T14:23:44.541Z,3.10
2023-05-15T14:26:34.135Z,3.83
2023-05-15T14:29:23.524Z,4.68
2023-05-15T14:32:14.406Z,6.15
2023-05-15T14:35:03.971Z,8.23
2023-05-15T14:37:59.581Z,5.22
2023-05-15T14:40:48.829Z,6.20
2023-05-15T14:43:38.851Z,4.22
2023-05-15T14:46:31.324Z,6.95
2023-05-15T14:49:24.538Z,4.82
2023-05-15T14:52:16.509Z,3.83
2023-05-15T14:55:09.573Z,3.50
2023-05-15T14:58:03.009Z,7.30
2023-05-15T15:00:54.977Z,4.45
2023-05-15T15:03:44.446Z,4.53
2023-05-15T15:06:35.078Z,3.72
2023-05-15T15:09:25.526Z,6.60
2023-05-15T15:12:15.609Z,4.15
2023-05-15T15:15:14.573Z,4.40
2023-05-15T15:18:09.855Z,3.70
2023-05-15T15:21:01.957Z,3.95
2023-05-15T15:24:00.509Z,6.93
2023-05-15T15:26:52.143Z,6.25
2023-05-15T15:29:41.478Z,3.70
2023-05-15T15:32:30.930Z,3.65
2023-05-15T15:35:20.355Z,3.00
2023-05-15T15:38:13.530Z,2.10
2023-05-15T15:41:05.654Z,3.03
2023-05-15T15:43:56.623Z,3.67
2023-05-15T15:46:48.035Z,3.05
2023-05-15T15:49:40.625Z,3.33
2023-05-15T15:52:35.114Z,4.40
2023-05-15T15:55:25.127Z,4.05
2023-05-15T15:58:16.908Z,4.00
2023-05-15T16:01:13.472Z,3.80
2023-05-15T16:04:02.993Z,4.00
2023-05-15T16:06:52.256Z,3.13
2023-05-15T16:09:41.534Z,4.05
2023-05-15T16:12:33.522Z,4.35
2023-05-15T16:15:24.655Z,3.43
2023-05-15T16:18:21.760Z,4.05
2023-05-15T16:21:16.954Z,2.17
2023-05-15T16:24:07.144Z,4.70
2023-05-15T16:27:05.540Z,5.45
2023-05-15T16:29:58.078Z,3.28
2023-05-15T16:32:54.081Z,2.05
2023-05-15T16:35:52.575Z,7.13
2023-05-15T16:38:42.052Z,2.15
2023-05-15T16:41:31.421Z,3.97
2023-05-15T16:44:20.615Z,4.20
2023-05-15T16:47:18.400Z,2.28
2023-05-15T16:50:10.781Z,4.85
2023-05-15T16:53:02.965Z,4.43
2023-05-15T16:55:55.668Z,3.88
2023-05-15T16:58:44.932Z,4.72
2023-05-15T17:01:34.240Z,2.63
2023-05-15T17:04:24.899Z,4.05
2023-05-15T17:07:15.855Z,4.82
2023-05-15T17:10:07.968Z,4.18
2023-05-15T17:13:00.098Z,4.13
2023-05-15T17:15:49.909Z,3.00
2023-05-15T17:18:39.981Z,3.67
2023-05-15T17:21:29.583Z,5.78
2023-05-15T17:24:20.483Z,4.57
2023-05-15T17:27:18.184Z,4.20
2023-05-15T17:30:09.609Z,7.70
2023-05-15T17:33:00.387Z,7.30
2023-05-15T17:35:51.458Z,8.57
2023-05-15T17:38:40.707Z,6.80
2023-05-15T17:41:31.501Z,4.85
2023-05-15T17:44:21.337Z,6.43
2023-05-15T17:47:11.149Z,7.18
2023-05-15T17:50:00.433Z,6.75
2023-05-15T17:52:49.906Z,4.55
2023-05-15T17:55:39.322Z,3.40
2023-05-15T17:58:29.965Z,7.10
2023-05-15T18:01:20.060Z,4.65
2023-05-15T18:04:09.631Z,4.82
2023-05-15T18:06:59.067Z,7.10
2023-05-15T18:09:48.519Z,4.18
2023-05-15T18:12:37.855Z,6.53
2023-05-15T18:15:28.730Z,6.88
2023-05-15T18:18:18.393Z,9.15
2023-05-15T18:21:07.702Z,15.02
2023-05-15T18:23:57.056Z,8.98
2023-05-15T18:26:46.866Z,5.85
2023-05-15T18:29:36.193Z,5.78
2023-05-15T18:32:26.814Z,5.68
2023-05-15T18:35:16.148Z,6.93
2023-05-15T18:38:05.559Z,4.18
2023-05-15T18:40:54.918Z,14.57
2023-05-15T18:43:44.215Z,11.88
2023-05-15T18:46:34.227Z,8.93
2023-05-15T18:49:24.933Z,4.88
2023-05-15T18:52:14.421Z,5.57
2023-05-15T18:55:03.751Z,5.43
2023-05-15T18:57:53.074Z,5.93
2023-05-15T19:00:42.426Z,7.80
2023-05-15T19:03:31.796Z,5.28
2023-05-15T19:06:22.443Z,6.40
2023-05-15T19:09:12.015Z,6.18
2023-05-15T19:12:02.499Z,3.70
2023-05-15T19:14:51.795Z,6.45
2023-05-15T19:17:41.050Z,6.32
2023-05-15T19:20:30.382Z,8.55
2023-05-15T19:23:21.650Z,7.18
2023-05-15T19:26:11.581Z,5.72
2023-05-15T19:29:00.908Z,7.25
2023-05-15T19:31:50.293Z,5.00
2023-05-15T19:34:39.603Z,5.00
2023-05-15T19:37:29.110Z,5.85
2023-05-15T19:40:19.912Z,9.38
2023-05-15T19:43:11.396Z,5.70
2023-05-15T19:46:00.710Z,8.80
2023-05-15T19:48:50.108Z,9.93
2023-05-15T19:51:41.151Z,5.90
2023-05-15T19:54:30.499Z,7.65
2023-05-15T19:57:21.250Z,7.55
2023-05-15T20:00:12.586Z,8.25
2023-05-15T20:03:02.007Z,11.82
2023-05-15T20:05:52.133Z,7.00
2023-05-15T20:08:42.086Z,7.95
2023-05-15T20:11:31.920Z,10.02
2023-05-15T20:14:22.582Z,7.82
2023-05-15T20:17:12.049Z,10.27
2023-05-15T20:20:02.300Z,10.00
2023-05-15T20:22:51.796Z,11.07
2023-05-15T20:25:46.308Z,10.68
2023-05-15T20:28:39.041Z,10.65
2023-05-15T20:31:29.965Z,10.18
2023-05-15T20:34:23.512Z,5.57
2023-05-15T20:37:13.968Z,7.72
2023-05-15T20:40:05.325Z,7.18
2023-05-15T20:42:54.605Z,7.60
2023-05-15T20:45:44.101Z,8.95
2023-05-15T20:48:34.752Z,7.63
2023-05-15T20:51:24.093Z,9.38
2023-05-15T20:54:13.462Z,12.77
2023-05-15T20:57:02.911Z,7.78
2023-05-15T20:59:52.619Z,6.50
2023-05-15T21:02:41.991Z,7.25
2023-05-15T21:05:32.838Z,11.43
2023-05-15T21:08:22.210Z,7.70
2023-05-15T21:11:11.500Z,7.95
2023-05-15T21:14:01.254Z,10.52
2023-05-15T21:16:50.495Z,6.70
2023-05-15T21:19:39.828Z,8.38
2023-05-15T21:22:30.679Z,6.78
2023-05-15T21:25:20.245Z,10.38
2023-05-15T21:28:09.557Z,9.60
2023-05-15T21:31:00.538Z,8.02
2023-05-15T21:33:49.773Z,12.82
2023-05-15T21:36:39.081Z,10.75
2023-05-15T21:39:29.756Z,9.57
2023-05-15T21:42:19.234Z,11.50
2023-05-15T21:45:09.583Z,12.05
2023-05-15T21:47:58.901Z,11.32
2023-05-15T21:50:48.254Z,7.22
2023-05-15T21:53:37.463Z,11.73
2023-05-15T21:56:28.276Z,5.57
2023-05-15T21:59:17.464Z,5.28
2023-05-15T22:02:07.208Z,6.70
2023-05-15T22:04:56.719Z,6.63
2023-05-15T22:07:46.236Z,11.30
2023-05-15T22:10:35.574Z,6.35
2023-05-15T22:13:26.387Z,8.77
2023-05-15T22:16:20.518Z,7.05
2023-05-15T22:19:18.470Z,8.55
2023-05-15T22:22:18.083Z,11.65
2023-05-15T22:25:08.772Z,7.38
2023-05-15T22:27:58.801Z,7.55
2023-05-15T22:30:49.621Z,10.23
2023-05-15T22:33:39.006Z,8.23
2023-05-15T22:36:28.282Z,9.38
2023-05-15T22:39:17.614Z,7.40
2023-05-15T22:42:08.194Z,9.50
2023-05-15T22:44:57.966Z,8.52
2023-05-15T22:47:49.204Z,8.65
2023-05-15T22:50:38.461Z,7.63
2023-05-15T22:53:28.140Z,7.07
2023-05-15T22:56:17.442Z,5.68
2023-05-15T22:59:06.837Z,10.55
2023-05-15T23:02:00.119Z,8.80
2023-05-15T23:04:50.797Z,8.38
2023-05-15T23:07:40.069Z,8.43
2023-05-15T23:10:29.608Z,5.20
2023-05-15T23:13:19.325Z,7.47
2023-05-15T23:16:10.002Z,8.48
2023-05-15T23:18:59.697Z,6.95
2023-05-15T23:21:50.992Z,10.23
2023-05-15T23:24:40.546Z,7.40
2023-05-15T23:27:29.827Z,7.38
2023-05-15T23:30:20.035Z,7.78
2023-05-15T23:33:09.549Z,10.45
2023-05-15T23:35:59.406Z,7.90
2023-05-15T23:38:50.070Z,6.53
2023-05-15T23:41:39.315Z,12.05
2023-05-15T23:44:28.561Z,13.15
2023-05-15T23:47:18.148Z,12.82
2023-05-15T23:50:09.353Z,10.00
2023-05-15T23:52:58.620Z,11.52
2023-05-15T23:55:49.372Z,10.77
2023-05-15T23:58:38.661Z,7.93
